Time;durP1;ratioP1;P1;durP2;ratioP2;P2;SDS_P1;SDS_P2;PMS_P1;PMS_P2;Temp;Humidity;BMP_temperature;BMP_pressure;BME280_temperature;BME280_humidity;BME280_pressure;Samples;Min_cycle;Max_cycle;Signal;HPM_P1;HPM_P2
2021/10/03 00:01:58;;;;;;;6.17;4.10;;;19.30;67.10;;;;;;5024839;28;20477;-41
2021/10/03 00:04:27;;;;;;;6.80;4.90;;;19.30;67.30;;;;;;5040285;28;21086;-41
2021/10/03 00:06:55;;;;;;;9.00;4.60;;;19.30;67.40;;;;;;5028472;28;20993;-41
2021/10/03 00:09:22;;;;;;;6.00;4.80;;;19.30;67.30;;;;;;5043398;28;20448;-42
2021/10/03 00:11:51;;;;;;;5.33;4.13;;;19.30;67.40;;;;;;5040327;28;20473;-41
2021/10/03 00:14:21;;;;;;;6.33;4.83;;;19.30;67.50;;;;;;5043818;28;20478;-42
2021/10/03 00:16:49;;;;;;;5.60;5.00;;;19.30;67.60;;;;;;5040455;28;21203;-41
2021/10/03 00:19:17;;;;;;;5.40;4.33;;;19.30;67.70;;;;;;5040729;28;20453;-41
2021/10/03 00:21:44;;;;;;;6.00;5.07;;;19.20;67.90;;;;;;5027699;28;20488;-41
2021/10/03 00:24:12;;;;;;;8.27;5.10;;;19.20;68.10;;;;;;5041787;28;20478;-41
2021/10/03 00:26:40;;;;;;;5.03;4.30;;;19.20;68.20;;;;;;5029465;28;20486;-41
2021/10/03 00:29:07;;;;;;;6.83;5.00;;;19.20;68.30;;;;;;5039271;28;20465;-41
2021/10/03 00:31:34;;;;;;;6.50;5.80;;;19.20;68.30;;;;;;5039788;28;20780;-41
2021/10/03 00:34:00;;;;;;;5.17;4.67;;;19.20;68.40;;;;;;5030846;28;20461;-42
2021/10/03 00:36:27;;;;;;;6.03;4.60;;;19.10;68.60;;;;;;5037452;28;20451;-41
2021/10/03 00:38:54;;;;;;;5.80;5.20;;;19.10;68.70;;;;;;5041222;28;20446;-41
2021/10/03 00:41:20;;;;;;;5.27;4.77;;;19.10;68.80;;;;;;5040354;28;20827;-42
2021/10/03 00:43:47;;;;;;;8.57;5.47;;;19.10;68.90;;;;;;5040972;28;20486;-41
2021/10/03 00:46:15;;;;;;;6.80;5.63;;;19.10;69.00;;;;;;5042606;28;20439;-41
2021/10/03 00:48:42;;;;;;;7.60;5.20;;;19.10;69.20;;;;;;5041027;28;20467;-42
2021/10/03 00:51:08;;;;;;;6.77;5.93;;;19.00;69.30;;;;;;5041798;28;20444;-42
2021/10/03 00:53:35;;;;;;;6.40;5.53;;;19.00;69.40;;;;;;5040168;28;21031;-42
2021/10/03 00:56:02;;;;;;;7.70;5.33;;;19.00;69.60;;;;;;5039705;28;20545;-42
2021/10/03 00:58:29;;;;;;;5.67;5.07;;;19.00;69.60;;;;;;5021596;28;20451;-42
2021/10/03 01:00:56;;;;;;;9.00;5.50;;;18.90;69.70;;;;;;5040039;28;20455;-42
2021/10/03 01:03:23;;;;;;;9.63;5.53;;;18.90;69.80;;;;;;5038223;28;20459;-42
2021/10/03 01:05:50;;;;;;;5.73;5.20;;;18.90;69.80;;;;;;5043974;28;20990;-42
2021/10/03 01:08:17;;;;;;;7.20;5.10;;;18.80;70.00;;;;;;5038297;28;20535;-42
2021/10/03 01:10:44;;;;;;;7.77;5.63;;;18.90;69.90;;;;;;5038154;28;20953;-42
2021/10/03 01:13:13;;;;;;;5.30;4.80;;;18.90;69.90;;;;;;5044076;28;20477;-42
2021/10/03 01:15:43;;;;;;;8.43;5.20;;;18.90;69.90;;;;;;5024549;28;20476;-42
2021/10/03 01:18:12;;;;;;;5.00;4.53;;;18.90;69.80;;;;;;5041652;28;20690;-41
2021/10/03 01:20:40;;;;;;;6.90;5.97;;;18.90;69.80;;;;;;5039855;28;20470;-41
2021/10/03 01:23:07;;;;;;;6.00;5.40;;;18.90;69.80;;;;;;5040757;28;20459;-41
2021/10/03 01:25:38;;;;;;;7.93;5.50;;;18.80;69.80;;;;;;5042566;28;20486;-42
2021/10/03 01:28:05;;;;;;;9.63;5.63;;;18.80;69.80;;;;;;5021146;28;20442;-42
2021/10/03 01:30:33;;;;;;;7.00;5.67;;;18.90;69.80;;;;;;5038937;28;20997;-42
2021/10/03 01:33:00;;;;;;;8.00;6.10;;;18.90;69.90;;;;;;5043498;28;20467;-42
2021/10/03 01:35:27;;;;;;;5.60;5.10;;;18.90;69.80;;;;;;5040151;28;20451;-42
2021/10/03 01:37:54;;;;;;;7.27;5.83;;;18.90;69.80;;;;;;5036439;28;20846;-42
2021/10/03 01:40:22;;;;;;;6.13;5.53;;;18.90;69.90;;;;;;5037060;28;20448;-42
2021/10/03 01:42:52;;;;;;;6.50;5.50;;;18.80;70.00;;;;;;5042875;28;20481;-42
2021/10/03 01:45:21;;;;;;;5.67;5.17;;;18.80;70.10;;;;;;5044158;28;20905;-42
2021/10/03 01:48:21;;;;;;;6.20;5.57;;;18.80;70.10;;;;;;5042420;28;20460;-42
2021/10/03 01:50:53;;;;;;;8.23;5.50;;;18.80;70.30;;;;;;5015667;28;20458;-42
2021/10/03 01:53:22;;;;;;;6.13;5.53;;;18.80;70.30;;;;;;5026514;28;20447;-42
2021/10/03 01:55:49;;;;;;;7.60;6.27;;;18.80;70.40;;;;;;5042808;28;20450;-42
2021/10/03 01:58:19;;;;;;;6.63;5.93;;;18.80;70.50;;;;;;5041460;28;20470;-42
2021/10/03 02:00:49;;;;;;;6.90;5.90;;;18.80;70.50;;;;;;5040039;28;20561;-42
2021/10/03 02:03:19;;;;;;;7.70;5.73;;;18.80;70.50;;;;;;5040780;28;20450;-42
2021/10/03 02:05:46;;;;;;;7.17;6.20;;;18.80;70.60;;;;;;5046959;28;20493;-42
2021/10/03 02:08:15;;;;;;;8.50;6.00;;;18.80;70.60;;;;;;5043822;28;20447;-42
2021/10/03 02:10:47;;;;;;;6.63;5.50;;;18.70;70.70;;;;;;5045609;28;20446;-42
2021/10/03 02:13:14;;;;;;;7.80;6.60;;;18.70;70.80;;;;;;5042388;28;20478;-42
2021/10/03 02:15:43;;;;;;;8.57;6.23;;;18.70;70.80;;;;;;5040182;28;20462;-42
2021/10/03 02:18:12;;;;;;;8.27;6.70;;;18.70;70.80;;;;;;5043566;28;20456;-42
2021/10/03 02:20:40;;;;;;;8.97;6.20;;;18.70;71.00;;;;;;5045017;28;20481;-42
2021/10/03 02:23:10;;;;;;;10.27;6.90;;;18.60;71.10;;;;;;5044241;28;20935;-42
2021/10/03 02:25:47;;;;;;;8.40;7.23;;;18.60;71.20;;;;;;5041101;28;20487;-42
2021/10/03 02:28:17;;;;;;;7.27;6.30;;;18.60;71.40;;;;;;5041982;28;20492;-42
2021/10/03 02:30:46;;;;;;;11.40;6.57;;;18.60;71.50;;;;;;5043908;28;20455;-42
2021/10/03 02:33:13;;;;;;;8.00;7.13;;;18.60;71.70;;;;;;5027672;28;20458;-42
2021/10/03 02:35:40;;;;;;;9.93;7.30;;;18.60;71.80;;;;;;5040612;28;20474;-42
2021/10/03 02:38:13;;;;;;;10.53;6.90;;;18.60;71.80;;;;;;5046235;28;20455;-42
2021/10/03 02:40:42;;;;;;;11.37;7.13;;;18.60;71.80;;;;;;5029231;28;20450;-42
2021/10/03 02:43:09;;;;;;;7.10;5.70;;;18.50;71.90;;;;;;5041089;28;20454;-42
2021/10/03 02:45:39;;;;;;;7.53;6.00;;;18.50;71.90;;;;;;5048546;28;20490;-44
2021/10/03 02:48:07;;;;;;;7.67;6.50;;;18.50;72.00;;;;;;5045970;28;20462;-44
2021/10/03 02:50:33;;;;;;;9.10;6.70;;;18.50;72.00;;;;;;5052989;28;20457;-44
2021/10/03 02:53:05;;;;;;;8.10;5.63;;;18.50;72.10;;;;;;5047258;28;20455;-44
2021/10/03 02:55:33;;;;;;;8.97;6.57;;;18.50;72.10;;;;;;5047756;28;20444;-44
2021/10/03 02:58:00;;;;;;;7.83;5.80;;;18.40;72.20;;;;;;5046453;28;20485;-43
2021/10/03 03:00:26;;;;;;;8.80;6.20;;;18.40;72.30;;;;;;5044441;28;20455;-43
2021/10/03 03:02:53;;;;;;;11.07;7.23;;;18.40;72.30;;;;;;5043935;28;20952;-43
2021/10/03 03:05:20;;;;;;;7.33;6.43;;;18.40;72.30;;;;;;5029749;28;21020;-43
2021/10/03 03:07:47;;;;;;;7.17;5.93;;;18.40;72.30;;;;;;5042464;28;20462;-43
2021/10/03 03:10:13;;;;;;;7.67;7.07;;;18.40;72.20;;;;;;5031300;28;20439;-43
2021/10/03 03:12:40;;;;;;;7.43;6.47;;;18.40;72.10;;;;;;5026278;28;20824;-43
2021/10/03 03:15:08;;;;;;;7.50;6.57;;;18.40;72.10;;;;;;5030121;28;20459;-43
2021/10/03 03:17:35;;;;;;;9.70;7.03;;;18.40;72.00;;;;;;5029385;28;20805;-43
2021/10/03 03:20:06;;;;;;;7.53;6.27;;;18.40;72.00;;;;;;5043179;28;20467;-43
2021/10/03 03:22:32;;;;;;;6.60;5.90;;;18.40;72.00;;;;;;5042987;28;20450;-43
2021/10/03 03:25:00;;;;;;;7.70;6.40;;;18.40;71.90;;;;;;5042542;28;20509;-43
2021/10/03 03:27:26;;;;;;;9.07;6.87;;;18.40;71.90;;;;;;5041643;28;20884;-43
2021/10/03 03:29:53;;;;;;;5.87;5.30;;;18.40;71.80;;;;;;5042627;28;20822;-43
2021/10/03 03:32:20;;;;;;;8.13;6.07;;;18.40;71.70;;;;;;5026898;28;20455;-43
2021/10/03 03:34:47;;;;;;;7.90;6.70;;;18.40;71.70;;;;;;5041353;28;20458;-43
2021/10/03 03:37:13;;;;;;;9.07;5.70;;;18.40;71.60;;;;;;5028975;28;20450;-43
2021/10/03 03:39:40;;;;;;;9.30;5.20;;;18.40;71.60;;;;;;5042383;28;20455;-43
2021/10/03 03:42:07;;;;;;;7.10;5.33;;;18.40;71.60;;;;;;5041360;28;20459;-43
2021/10/03 03:44:34;;;;;;;6.30;5.70;;;18.40;71.50;;;;;;5045426;28;20517;-43
2021/10/03 03:47:00;;;;;;;9.63;6.60;;;18.50;71.30;;;;;;5041789;28;20455;-43
2021/10/03 03:49:28;;;;;;;7.70;5.43;;;18.50;71.40;;;;;;5041941;28;20459;-43
2021/10/03 03:51:56;;;;;;;7.47;6.30;;;18.50;71.40;;;;;;5028754;28;20469;-43
2021/10/03 03:54:23;;;;;;;6.53;5.37;;;18.50;71.40;;;;;;5039800;28;20470;-43
2021/10/03 03:56:50;;;;;;;7.90;5.90;;;18.50;71.40;;;;;;5042812;28;20462;-43
2021/10/03 03:59:17;;;;;;;8.13;5.80;;;18.50;71.50;;;;;;5039585;28;20467;-43
2021/10/03 04:01:43;;;;;;;8.60;6.00;;;18.50;71.30;;;;;;5039744;28;20467;-43
2021/10/03 04:04:10;;;;;;;7.33;6.17;;;18.50;71.30;;;;;;5029569;28;20544;-43
2021/10/03 04:06:37;;;;;;;9.20;5.20;;;18.50;71.30;;;;;;5038213;28;20625;-43
2021/10/03 04:09:06;;;;;;;6.40;5.13;;;18.50;71.30;;;;;;5043700;28;20988;-43
2021/10/03 04:11:33;;;;;;;7.70;5.60;;;18.50;71.20;;;;;;5027394;28;20686;-43
2021/10/03 04:14:00;;;;;;;8.00;5.60;;;18.60;71.10;;;;;;5042503;28;20467;-43
2021/10/03 04:16:26;;;;;;;7.93;5.70;;;18.60;71.20;;;;;;5044291;28;20455;-43
2021/10/03 04:18:53;;;;;;;6.97;5.67;;;18.60;71.10;;;;;;5044200;28;20458;-43
2021/10/03 04:21:20;;;;;;;7.30;5.67;;;18.50;71.20;;;;;;5021349;28;20463;-43
2021/10/03 04:23:47;;;;;;;6.30;5.57;;;18.50;71.20;;;;;;5044810;28;20454;-43
2021/10/03 04:26:13;;;;;;;6.80;5.43;;;18.50;71.20;;;;;;5042109;28;20478;-43
2021/10/03 04:28:40;;;;;;;8.60;6.20;;;18.50;71.10;;;;;;5043658;28;20453;-43
2021/10/03 04:31:09;;;;;;;6.07;5.47;;;18.50;71.00;;;;;;5037987;28;20836;-43
2021/10/03 04:33:40;;;;;;;6.10;5.10;;;18.50;70.90;;;;;;5038050;28;20458;-43
2021/10/03 04:36:09;;;;;;;8.10;5.70;;;18.50;70.80;;;;;;5044384;28;20490;-43
2021/10/03 04:38:39;;;;;;;7.80;5.93;;;18.50;70.80;;;;;;5042890;28;20501;-43
2021/10/03 04:41:07;;;;;;;6.93;5.57;;;18.50;70.70;;;;;;5039270;28;20461;-43
2021/10/03 04:43:33;;;;;;;6.47;5.47;;;18.50;70.70;;;;;;5042393;28;20451;-43
2021/10/03 04:46:00;;;;;;;7.33;5.90;;;18.50;70.50;;;;;;5027056;28;20862;-43
2021/10/03 04:48:27;;;;;;;5.60;4.90;;;18.60;70.40;;;;;;5038683;28;20521;-43
2021/10/03 04:50:54;;;;;;;6.20;5.20;;;18.50;70.30;;;;;;5041885;28;20453;-42
2021/10/03 04:53:20;;;;;;;6.00;4.90;;;18.60;70.20;;;;;;5039276;28;20501;-43
2021/10/03 04:55:47;;;;;;;5.30;4.80;;;18.60;70.10;;;;;;5042620;28;20966;-42
2021/10/03 04:58:14;;;;;;;5.30;4.47;;;18.60;70.10;;;;;;5042497;28;20459;-43
2021/10/03 05:00:40;;;;;;;6.10;5.40;;;18.60;70.00;;;;;;5043180;28;20787;-43
2021/10/03 05:03:07;;;;;;;6.37;4.93;;;18.60;70.00;;;;;;5039651;28;20466;-42
2021/10/03 05:05:34;;;;;;;5.53;4.70;;;18.60;69.90;;;;;;5039816;28;20490;-42
2021/10/03 05:08:01;;;;;;;5.40;4.90;;;18.60;69.90;;;;;;5042765;28;20466;-43
2021/10/03 05:10:27;;;;;;;6.20;5.07;;;18.60;69.80;;;;;;5043264;28;20453;-42
2021/10/03 05:12:54;;;;;;;6.70;5.40;;;18.60;69.70;;;;;;5040835;28;20459;-43
2021/10/03 05:15:21;;;;;;;6.80;5.20;;;18.60;69.70;;;;;;5045091;28;20454;-42
2021/10/03 05:17:48;;;;;;;5.17;4.67;;;18.70;69.40;;;;;;5041339;28;20476;-42
2021/10/03 05:20:14;;;;;;;6.13;4.63;;;18.70;69.40;;;;;;5045580;28;20463;-43
2021/10/03 05:22:41;;;;;;;5.27;4.50;;;18.70;69.20;;;;;;5043244;28;20834;-42
2021/10/03 05:25:09;;;;;;;5.67;4.70;;;18.60;69.30;;;;;;5046544;28;20491;-42
2021/10/03 05:27:36;;;;;;;5.80;5.20;;;18.60;69.40;;;;;;5044009;28;20829;-42
2021/10/03 05:30:03;;;;;;;5.23;4.10;;;18.60;69.30;;;;;;5044568;28;20446;-43
2021/10/03 05:32:30;;;;;;;5.97;4.77;;;18.60;69.20;;;;;;5032161;28;20463;-43
2021/10/03 05:34:57;;;;;;;8.80;4.43;;;18.60;69.10;;;;;;5042581;28;20892;-43
2021/10/03 05:37:24;;;;;;;7.70;4.83;;;18.60;69.00;;;;;;5043513;28;20462;-43
2021/10/03 05:39:51;;;;;;;5.70;5.17;;;18.60;69.00;;;;;;5042183;28;20447;-43
2021/10/03 05:42:17;;;;;;;6.63;4.87;;;18.60;69.00;;;;;;5026810;28;20455;-43
2021/10/03 05:44:44;;;;;;;6.93;4.70;;;18.60;69.10;;;;;;5044445;28;20461;-43
2021/10/03 05:47:11;;;;;;;6.33;4.70;;;18.60;69.20;;;;;;5046989;28;20458;-43
2021/10/03 05:49:37;;;;;;;6.17;5.10;;;18.70;69.40;;;;;;5046297;28;20447;-43
2021/10/03 05:52:04;;;;;;;4.80;4.00;;;18.70;69.40;;;;;;5045615;28;20451;-43
2021/10/03 05:54:31;;;;;;;6.07;5.17;;;18.60;69.50;;;;;;5047695;28;20939;-43
2021/10/03 05:56:58;;;;;;;7.47;6.30;;;18.60;69.70;;;;;;5044853;28;20940;-43
2021/10/03 05:59:25;;;;;;;7.57;4.50;;;18.60;69.90;;;;;;5044615;28;20796;-43
2021/10/03 06:01:51;;;;;;;5.93;4.50;;;18.60;70.00;;;;;;5047935;28;20450;-43
2021/10/03 06:04:18;;;;;;;7.73;5.10;;;18.60;70.10;;;;;;5043389;28;20550;-43
2021/10/03 06:06:45;;;;;;;9.20;5.20;;;18.60;70.30;;;;;;5042476;28;20966;-43
2021/10/03 06:09:13;;;;;;;6.20;5.60;;;18.50;70.40;;;;;;5045517;28;20817;-43
2021/10/03 06:11:40;;;;;;;6.20;5.37;;;18.50;70.60;;;;;;5042075;28;20466;-43
2021/10/03 06:14:07;;;;;;;6.63;4.67;;;18.50;70.70;;;;;;5045193;28;20477;-43
2021/10/03 06:16:35;;;;;;;9.37;5.63;;;18.50;70.80;;;;;;5040752;28;20470;-43
2021/10/03 06:19:02;;;;;;;5.20;4.70;;;18.40;71.10;;;;;;5043808;28;20471;-43
2021/10/03 06:21:28;;;;;;;6.17;5.30;;;18.40;71.20;;;;;;5042702;28;20797;-43
2021/10/03 06:23:55;;;;;;;7.53;6.30;;;18.40;71.30;;;;;;5044460;28;20451;-43
2021/10/03 06:26:22;;;;;;;10.53;5.30;;;18.40;71.50;;;;;;5043000;28;20489;-43
2021/10/03 06:28:49;;;;;;;7.23;5.97;;;18.40;71.60;;;;;;5044792;28;20442;-43
2021/10/03 06:31:15;;;;;;;5.93;5.20;;;18.40;71.80;;;;;;5043807;28;20454;-43
2021/10/03 06:33:42;;;;;;;8.30;5.63;;;18.30;71.80;;;;;;5046823;28;20460;-43
2021/10/03 06:36:12;;;;;;;6.70;5.53;;;18.40;71.80;;;;;;5041193;28;20456;-43
2021/10/03 06:38:40;;;;;;;6.67;5.97;;;18.30;72.00;;;;;;5044199;28;20952;-43
2021/10/03 06:41:06;;;;;;;6.27;5.40;;;18.30;72.50;;;;;;5044949;28;20454;-43
2021/10/03 06:43:38;;;;;;;9.33;6.03;;;18.30;72.90;;;;;;5030296;28;20457;-43
2021/10/03 06:46:07;;;;;;;7.80;5.60;;;18.30;73.30;;;;;;5045081;28;20510;-43
2021/10/03 06:48:34;;;;;;;9.07;6.77;;;18.30;73.60;;;;;;5046319;28;20530;-43
2021/10/03 06:51:01;;;;;;;6.30;5.50;;;18.30;74.00;;;;;;5044600;28;20451;-43
2021/10/03 06:53:27;;;;;;;9.20;6.13;;;18.30;74.40;;;;;;5041055;28;20453;-43
2021/10/03 06:55:54;;;;;;;6.77;5.70;;;18.20;74.80;;;;;;5039927;28;20468;-43
2021/10/03 06:58:21;;;;;;;7.33;5.60;;;18.20;75.10;;;;;;5044539;28;20506;-43
2021/10/03 07:00:48;;;;;;;7.97;6.07;;;18.20;75.50;;;;;;5041093;28;20871;-43
2021/10/03 07:03:15;;;;;;;6.80;5.83;;;18.20;75.80;;;;;;5026330;28;20456;-43
2021/10/03 07:05:41;;;;;;;8.70;5.57;;;18.20;75.90;;;;;;5044128;28;20573;-43
2021/10/03 07:08:08;;;;;;;7.80;5.97;;;18.20;76.30;;;;;;5042211;28;20512;-43
2021/10/03 07:10:35;;;;;;;7.10;6.40;;;18.20;76.30;;;;;;5044159;28;20458;-43
2021/10/03 07:13:02;;;;;;;6.67;6.07;;;18.10;76.70;;;;;;5043423;28;20482;-43
2021/10/03 07:15:28;;;;;;;8.40;6.07;;;18.10;77.10;;;;;;5018139;28;20458;-43
2021/10/03 07:17:55;;;;;;;7.27;6.20;;;18.10;77.30;;;;;;5043052;28;20533;-43
2021/10/03 07:20:22;;;;;;;9.57;5.63;;;18.10;77.40;;;;;;5042911;28;20467;-43
2021/10/03 07:22:49;;;;;;;7.40;6.13;;;18.10;77.50;;;;;;5043537;28;20465;-43
2021/10/03 07:25:15;;;;;;;9.10;6.27;;;18.10;77.60;;;;;;5041923;28;20831;-43
2021/10/03 07:27:42;;;;;;;7.30;6.57;;;18.10;77.70;;;;;;5042709;28;20450;-43
2021/10/03 07:30:09;;;;;;;6.40;5.80;;;18.10;77.80;;;;;;5042281;28;20481;-43
2021/10/03 07:32:36;;;;;;;8.20;6.20;;;18.10;77.90;;;;;;5044186;28;20458;-43
2021/10/03 07:35:05;;;;;;;8.97;7.03;;;18.00;77.90;;;;;;5042238;28;20455;-43
2021/10/03 07:37:32;;;;;;;7.87;6.53;;;18.10;78.00;;;;;;5042091;28;20442;-43
2021/10/03 07:39:59;;;;;;;9.30;6.00;;;18.00;78.20;;;;;;5043569;28;20492;-43
2021/10/03 07:42:25;;;;;;;6.47;5.77;;;18.00;78.20;;;;;;5023742;28;20762;-43
2021/10/03 07:44:52;;;;;;;6.83;5.80;;;18.00;78.10;;;;;;5023736;28;20458;-43
2021/10/03 07:47:19;;;;;;;6.33;5.70;;;18.00;77.60;;;;;;5043439;28;20490;-43
2021/10/03 07:49:45;;;;;;;6.20;5.40;;;18.00;77.40;;;;;;5040244;28;20473;-43
2021/10/03 07:52:12;;;;;;;8.00;6.50;;;18.00;77.00;;;;;;5043153;28;20455;-44
2021/10/03 07:54:39;;;;;;;8.63;5.80;;;18.10;76.20;;;;;;5043471;28;20490;-43
2021/10/03 07:57:06;;;;;;;6.30;5.17;;;18.10;74.80;;;;;;5045117;28;20464;-43
2021/10/03 07:59:33;;;;;;;8.00;5.63;;;18.10;74.30;;;;;;5042746;28;20470;-43
2021/10/03 08:01:59;;;;;;;8.53;5.40;;;18.10;74.40;;;;;;5043183;28;20846;-43
2021/10/03 08:04:27;;;;;;;5.83;5.30;;;18.20;74.40;;;;;;5039985;28;20461;-43
2021/10/03 08:06:54;;;;;;;6.10;5.50;;;18.20;74.30;;;;;;5044330;28;20483;-43
2021/10/03 08:09:23;;;;;;;6.87;5.60;;;18.20;74.30;;;;;;5042203;28;20467;-43
2021/10/03 08:11:49;;;;;;;6.67;5.57;;;18.30;74.10;;;;;;5041332;28;20989;-43
2021/10/03 08:14:16;;;;;;;7.03;5.53;;;18.30;73.70;;;;;;5024732;28;20477;-43
2021/10/03 08:16:43;;;;;;;6.60;5.47;;;18.40;73.30;;;;;;5040508;28;20884;-43
2021/10/03 08:19:10;;;;;;;9.60;5.90;;;18.40;73.00;;;;;;5041337;28;20552;-43
2021/10/03 08:21:37;;;;;;;5.80;5.10;;;18.40;72.90;;;;;;5040827;28;20471;-43
2021/10/03 08:24:04;;;;;;;5.80;5.20;;;18.40;72.70;;;;;;5043680;28;20450;-43
2021/10/03 08:26:31;;;;;;;6.97;5.30;;;18.50;72.60;;;;;;5040876;28;20553;-43
2021/10/03 08:28:58;;;;;;;8.30;5.33;;;18.50;72.40;;;;;;5042631;28;20448;-43
2021/10/03 08:31:25;;;;;;;6.07;5.40;;;18.50;72.20;;;;;;5042598;28;20541;-43
2021/10/03 08:33:52;;;;;;;8.77;5.47;;;18.60;72.00;;;;;;5039955;28;20471;-43
2021/10/03 08:36:18;;;;;;;6.43;4.87;;;18.60;71.80;;;;;;5038211;28;20836;-43
2021/10/03 08:38:45;;;;;;;6.70;5.00;;;18.60;71.60;;;;;;5027860;28;20462;-43
2021/10/03 08:41:13;;;;;;;4.90;4.40;;;18.60;71.50;;;;;;5039190;28;20521;-43
2021/10/03 08:43:40;;;;;;;4.57;4.17;;;18.60;71.40;;;;;;5042121;28;20457;-43
2021/10/03 08:46:09;;;;;;;6.10;4.93;;;18.70;71.40;;;;;;5039914;28;20526;-43
2021/10/03 08:48:36;;;;;;;7.43;5.27;;;18.70;71.20;;;;;;5022709;28;20447;-43
2021/10/03 08:51:03;;;;;;;5.90;5.00;;;18.70;71.10;;;;;;5023638;28;20454;-43
2021/10/03 08:53:30;;;;;;;8.47;5.60;;;18.70;71.40;;;;;;5043847;28;20454;-43
2021/10/03 08:55:57;;;;;;;5.97;4.83;;;18.70;71.80;;;;;;5039605;28;20485;-43
2021/10/03 08:58:25;;;;;;;5.73;4.93;;;18.70;72.00;;;;;;5038986;28;20463;-43
2021/10/03 09:00:52;;;;;;;5.87;4.90;;;18.70;72.10;;;;;;5039364;28;20459;-43
2021/10/03 09:03:19;;;;;;;8.80;4.50;;;18.70;72.00;;;;;;5041059;28;20987;-43
2021/10/03 09:05:55;;;;;;;6.03;5.03;;;18.80;71.70;;;;;;5044621;28;20458;-43
2021/10/03 09:08:29;;;;;;;5.70;5.10;;;18.80;71.50;;;;;;5039727;28;20459;-43
2021/10/03 09:11:16;;;;;;;6.53;5.27;;;18.80;71.20;;;;;;5041747;28;20505;-43
2021/10/03 09:13:50;;;;;;;7.23;5.13;;;18.80;70.90;;;;;;5041143;28;20888;-43
2021/10/03 09:16:33;;;;;;;5.43;4.70;;;18.80;70.80;;;;;;5039347;28;20871;-43
2021/10/03 09:19:02;;;;;;;5.97;5.20;;;18.80;70.80;;;;;;5043862;28;20943;-44
2021/10/03 09:21:28;;;;;;;7.50;5.03;;;18.90;70.80;;;;;;5041872;28;20455;-44
2021/10/03 09:24:04;;;;;;;9.53;5.23;;;18.90;70.70;;;;;;5043386;28;20458;-44
2021/10/03 09:26:33;;;;;;;7.90;4.90;;;18.90;70.90;;;;;;5025820;28;20478;-44
2021/10/03 09:29:19;;;;;;;5.60;4.50;;;19.00;71.20;;;;;;5040323;28;20469;-44
2021/10/03 09:32:11;;;;;;;6.70;4.50;;;19.00;71.10;;;;;;5040973;28;20481;-44
2021/10/03 09:34:40;;;;;;;7.33;5.40;;;19.00;70.50;;;;;;5040350;28;20462;-43
2021/10/03 09:37:27;;;;;;;5.10;4.60;;;19.00;70.40;;;;;;5043924;28;20484;-43
2021/10/03 09:40:06;;;;;;;6.17;4.97;;;19.00;70.30;;;;;;5040093;28;20451;-44
2021/10/03 09:42:34;;;;;;;5.10;4.30;;;19.10;70.10;;;;;;5041460;28;20458;-44
2021/10/03 09:45:09;;;;;;;4.93;4.53;;;19.10;70.00;;;;;;5041837;28;20476;-44
2021/10/03 09:47:38;;;;;;;5.23;4.73;;;19.10;69.80;;;;;;5040880;28;20486;-45
2021/10/03 09:50:07;;;;;;;6.27;4.70;;;19.10;69.70;;;;;;5038418;28;20455;-44
2021/10/03 09:52:39;;;;;;;6.27;3.80;;;19.20;69.40;;;;;;5027610;28;20539;-44
2021/10/03 09:55:13;;;;;;;5.07;4.23;;;19.20;69.10;;;;;;5044357;28;20539;-44
2021/10/03 09:57:42;;;;;;;5.33;4.80;;;19.20;68.80;;;;;;5028599;28;20453;-44
2021/10/03 10:00:10;;;;;;;5.90;4.47;;;19.30;69.40;;;;;;5041932;28;21020;-44
2021/10/03 10:02:38;;;;;;;5.83;5.13;;;19.30;69.40;;;;;;5025306;28;20459;-44
2021/10/03 10:05:04;;;;;;;5.23;4.53;;;19.30;69.40;;;;;;5042809;28;20463;-44
2021/10/03 10:07:33;;;;;;;5.40;4.10;;;19.30;69.20;;;;;;5044806;28;20487;-44
2021/10/03 10:10:00;;;;;;;4.70;4.20;;;19.30;69.10;;;;;;5042348;28;20443;-44
2021/10/03 10:12:29;;;;;;;4.43;4.03;;;19.40;68.80;;;;;;5044680;28;20454;-44
2021/10/03 10:15:04;;;;;;;5.73;4.13;;;19.40;68.60;;;;;;5043591;28;20469;-44
2021/10/03 10:17:36;;;;;;;5.63;3.90;;;19.40;68.60;;;;;;5044891;28;20465;-44
2021/10/03 10:20:27;;;;;;;5.20;4.13;;;19.50;68.70;;;;;;5043598;28;20470;-44
2021/10/03 10:22:55;;;;;;;4.60;4.17;;;19.50;68.70;;;;;;5043532;28;20454;-44
2021/10/03 10:25:45;;;;;;;4.30;3.90;;;19.50;68.50;;;;;;5042530;28;20458;-44
2021/10/03 10:28:28;;;;;;;4.70;4.30;;;19.60;68.40;;;;;;5042328;28;20526;-42
2021/10/03 10:31:11;;;;;;;7.37;4.57;;;19.60;68.10;;;;;;5040965;28;20539;-43
2021/10/03 10:33:50;;;;;;;6.13;3.90;;;19.70;68.10;;;;;;5045339;28;20566;-43
2021/10/03 10:36:22;;;;;;;4.20;3.80;;;19.70;67.80;;;;;;5037452;28;20542;-43
2021/10/03 10:39:07;;;;;;;4.30;3.90;;;19.70;67.70;;;;;;5041725;28;20541;-43
2021/10/03 10:41:40;;;;;;;6.87;4.53;;;19.80;67.80;;;;;;5044978;28;20498;-43
2021/10/03 10:44:27;;;;;;;4.80;4.00;;;19.80;67.70;;;;;;5039171;28;20463;-43
2021/10/03 10:46:58;;;;;;;5.00;4.50;;;19.90;67.50;;;;;;5041523;28;20486;-43
2021/10/03 10:49:35;;;;;;;5.23;3.40;;;19.80;67.40;;;;;;5046422;28;20829;-43
2021/10/03 10:52:20;;;;;;;4.10;3.63;;;19.80;67.40;;;;;;5038967;28;20451;-43
2021/10/03 10:55:00;;;;;;;5.70;4.10;;;19.90;67.80;;;;;;5042566;28;20477;-42
2021/10/03 10:57:27;;;;;;;3.93;3.63;;;19.90;68.80;;;;;;5043630;28;20557;-43
2021/10/03 11:00:20;;;;;;;4.60;4.13;;;19.90;69.30;;;;;;5040910;28;20454;-43
2021/10/03 11:02:53;;;;;;;7.13;5.50;;;19.90;69.30;;;;;;5046432;28;20971;-43
2021/10/03 11:05:32;;;;;;;5.30;4.80;;;19.90;69.50;;;;;;5041140;28;20901;-43
2021/10/03 11:08:16;;;;;;;5.90;4.60;;;19.90;70.00;;;;;;5042274;28;21037;-43
2021/10/03 11:10:58;;;;;;;8.03;4.83;;;19.90;69.90;;;;;;5023751;28;20471;-42
2021/10/03 11:13:48;;;;;;;4.23;3.83;;;19.90;70.00;;;;;;5029424;28;20489;-43
2021/10/03 11:16:35;;;;;;;4.13;3.73;;;19.90;70.20;;;;;;5039732;28;20496;-44
2021/10/03 11:19:16;;;;;;;4.20;3.80;;;19.90;69.70;;;;;;5040239;28;20454;-44
2021/10/03 11:21:43;;;;;;;4.27;3.87;;;19.90;69.60;;;;;;5044362;28;20473;-43
2021/10/03 11:24:21;;;;;;;4.50;4.10;;;19.90;69.50;;;;;;5043558;28;20468;-44
2021/10/03 11:26:52;;;;;;;5.77;4.30;;;19.90;69.50;;;;;;5041661;28;20487;-44
2021/10/03 11:29:22;;;;;;;4.93;3.93;;;19.80;69.50;;;;;;5022942;28;20498;-44
2021/10/03 11:31:50;;;;;;;5.07;4.60;;;19.80;69.90;;;;;;5038239;28;20462;-45
2021/10/03 11:34:37;;;;;;;4.00;3.50;;;19.70;70.10;;;;;;5026213;28;20566;-44
2021/10/03 11:37:06;;;;;;;4.07;3.67;;;19.70;70.60;;;;;;5042791;28;20932;-43
2021/10/03 11:39:35;;;;;;;5.60;3.57;;;19.70;70.40;;;;;;5040120;28;20460;-44
2021/10/03 11:42:31;;;;;;;3.97;3.60;;;19.70;70.60;;;;;;5040916;28;20462;-44
2021/10/03 11:45:08;;;;;;;4.40;4.03;;;19.70;70.20;;;;;;5030341;28;20471;-44
2021/10/03 11:47:39;;;;;;;3.87;3.30;;;19.80;69.90;;;;;;5041733;28;20486;-44
2021/10/03 11:50:08;;;;;;;4.30;3.90;;;19.80;69.40;;;;;;5040960;28;20457;-44
2021/10/03 11:52:37;;;;;;;4.10;3.33;;;19.90;69.00;;;;;;5040798;28;20888;-44
2021/10/03 11:55:10;;;;;;;4.13;3.80;;;19.90;68.90;;;;;;5041248;28;20549;-44
2021/10/03 11:57:40;;;;;;;3.67;3.37;;;20.00;68.60;;;;;;5042023;28;20860;-44
2021/10/03 12:00:11;;;;;;;4.13;3.73;;;20.10;68.80;;;;;;5039870;28;20467;-43
2021/10/03 12:02:43;;;;;;;5.00;3.10;;;20.10;68.40;;;;;;5043965;28;20557;-44
2021/10/03 12:05:15;;;;;;;5.40;4.20;;;20.20;67.90;;;;;;5041737;28;20465;-43
2021/10/03 12:07:42;;;;;;;4.27;3.67;;;20.30;66.80;;;;;;5044952;28;20490;-44
2021/10/03 12:10:14;;;;;;;3.87;3.57;;;20.30;66.50;;;;;;5044323;28;20819;-44
2021/10/03 12:12:53;;;;;;;3.53;3.23;;;20.30;66.40;;;;;;5033722;28;20497;-44
2021/10/03 12:15:37;;;;;;;3.80;3.50;;;20.30;66.40;;;;;;5038797;28;20554;-44
2021/10/03 12:18:04;;;;;;;6.40;4.07;;;20.40;66.30;;;;;;5041949;28;20815;-44
2021/10/03 12:20:51;;;;;;;5.37;3.60;;;20.40;66.30;;;;;;5039086;28;20542;-44
2021/10/03 12:23:20;;;;;;;4.27;3.83;;;20.50;67.10;;;;;;5038585;28;21314;-44
2021/10/03 12:25:50;;;;;;;7.00;4.93;;;20.50;67.10;;;;;;5039481;28;20469;-44
2021/10/03 12:28:19;;;;;;;5.80;4.50;;;20.60;67.20;;;;;;5025439;28;20487;-44
2021/10/03 12:30:53;;;;;;;4.27;3.30;;;20.60;67.20;;;;;;5043077;28;20906;-43
2021/10/03 12:33:21;;;;;;;4.37;3.77;;;20.70;66.80;;;;;;5041100;28;20548;-43
2021/10/03 12:36:02;;;;;;;4.50;4.07;;;20.80;68.40;;;;;;5040334;28;20962;-43
2021/10/03 12:38:30;;;;;;;4.27;3.87;;;20.90;67.60;;;;;;5039572;28;20459;-44
2021/10/03 12:40:57;;;;;;;3.57;3.27;;;21.00;67.20;;;;;;5040811;28;20454;-43
2021/10/03 12:43:25;;;;;;;4.93;3.10;;;21.00;67.40;;;;;;5041049;28;20458;-44
2021/10/03 12:45:52;;;;;;;7.43;5.93;;;21.10;66.10;;;;;;5044615;28;20537;-43
2021/10/03 12:48:19;;;;;;;10.73;7.53;;;21.10;65.10;;;;;;5042645;28;20567;-43
2021/10/03 12:50:46;;;;;;;8.10;4.87;;;21.10;65.20;;;;;;5040178;28;20458;-43
2021/10/03 12:53:12;;;;;;;5.77;4.00;;;21.10;65.10;;;;;;5043777;28;20458;-43
2021/10/03 12:55:39;;;;;;;3.80;3.40;;;21.10;64.60;;;;;;5039558;28;20472;-44
2021/10/03 12:58:06;;;;;;;6.17;3.83;;;21.10;63.80;;;;;;5036277;28;20454;-44